sensor_id;sensor_type;location;lat;lon;timestamp;temperature;humidity
38239;DHT22;24035;48.900;9.188;2023-09-19T00:00:43;17.40;99.90
38239;DHT22;24035;48.900;9.188;2023-09-19T00:03:12;17.30;1.00
38239;DHT22;24035;48.900;9.188;2023-09-19T00:05:39;17.30;1.00
38239;DHT22;24035;48.900;9.188;2023-09-19T00:08:05;17.20;1.00
38239;DHT22;24035;48.900;9.188;2023-09-19T00:10:32;17.20;99.90
38239;DHT22;24035;48.900;9.188;2023-09-19T00:13:03;17.00;1.00
38239;DHT22;24035;48.900;9.188;2023-09-19T00:15:37;16.90;1.00
38239;DHT22;24035;48.900;9.188;2023-09-19T00:18:04;16.90;1.00
38239;DHT22;24035;48.900;9.188;2023-09-19T00:20:37;16.80;99.90
38239;DHT22;24035;48.900;9.188;2023-09-19T00:23:04;16.90;1.00
38239;DHT22;24035;48.900;9.188;2023-09-19T00:25:37;16.90;98.00
38239;DHT22;24035;48.900;9.188;2023-09-19T00:28:04;16.90;1.00
38239;DHT22;24035;48.900;9.188;2023-09-19T00:30:32;16.80;99.90
38239;DHT22;24035;48.900;9.188;2023-09-19T00:32:58;16.80;3.70
38239;DHT22;24035;48.900;9.188;2023-09-19T00:35:24;16.80;28.80
38239;DHT22;24035;48.900;9.188;2023-09-19T00:37:51;16.80;92.50
38239;DHT22;24035;48.900;9.188;2023-09-19T00:40:17;16.80;91.30
38239;DHT22;24035;48.900;9.188;2023-09-19T00:42:43;16.80;27.10
38239;DHT22;24035;48.900;9.188;2023-09-19T00:45:10;16.80;32.40
38239;DHT22;24035;48.900;9.188;2023-09-19T00:47:48;16.70;99.90
38239;DHT22;24035;48.900;9.188;2023-09-19T00:50:20;16.70;99.90
38239;DHT22;24035;48.900;9.188;2023-09-19T00:52:50;16.80;99.90
38239;DHT22;24035;48.900;9.188;2023-09-19T00:55:18;16.90;99.90
38239;DHT22;24035;48.900;9.188;2023-09-19T00:57:45;16.90;1.00
38239;DHT22;24035;48.900;9.188;2023-09-19T01:00:12;16.90;1.00
38239;DHT22;24035;48.900;9.188;2023-09-19T01:02:41;16.90;1.00
38239;DHT22;24035;48.900;9.188;2023-09-19T01:05:11;17.00;1.00
38239;DHT22;24035;48.900;9.188;2023-09-19T01:07:41;17.00;1.00
38239;DHT22;24035;48.900;9.188;2023-09-19T01:10:09;17.00;99.90
38239;DHT22;24035;48.900;9.188;2023-09-19T01:21:44;17.10;99.90
38239;DHT22;24035;48.900;9.188;2023-09-19T01:24:34;17.10;99.90
38239;DHT22;24035;48.900;9.188;2023-09-19T01:29:49;17.10;99.90
38239;DHT22;24035;48.900;9.188;2023-09-19T01:32:20;17.00;99.90
38239;DHT22;24035;48.900;9.188;2023-09-19T01:34:54;17.00;4.30
38239;DHT22;24035;48.900;9.188;2023-09-19T01:37:23;16.90;99.90
38239;DHT22;24035;48.900;9.188;2023-09-19T01:39:56;16.90;99.90
38239;DHT22;24035;48.900;9.188;2023-09-19T01:47:52;16.90;99.90
38239;DHT22;24035;48.900;9.188;2023-09-19T01:50:32;16.70;99.90
38239;DHT22;24035;48.900;9.188;2023-09-19T01:53:05;16.70;1.00
38239;DHT22;24035;48.900;9.188;2023-09-19T01:55:37;16.70;1.00
38239;DHT22;24035;48.900;9.188;2023-09-19T01:58:17;16.60;1.00
38239;DHT22;24035;48.900;9.188;2023-09-19T02:00:48;16.60;1.00
38239;DHT22;24035;48.900;9.188;2023-09-19T02:03:16;16.50;1.00
38239;DHT22;24035;48.900;9.188;2023-09-19T02:05:48;16.50;1.00
38239;DHT22;24035;48.900;9.188;2023-09-19T02:08:17;16.40;99.90
38239;DHT22;24035;48.900;9.188;2023-09-19T02:10:45;16.30;99.90
38239;DHT22;24035;48.900;9.188;2023-09-19T02:13:16;16.30;1.00
38239;DHT22;24035;48.900;9.188;2023-09-19T02:15:42;16.20;1.00
38239;DHT22;24035;48.900;9.188;2023-09-19T02:18:10;16.10;1.00
38239;DHT22;24035;48.900;9.188;2023-09-19T02:20:40;16.10;1.00
38239;DHT22;24035;48.900;9.188;2023-09-19T02:23:07;16.00;1.00
38239;DHT22;24035;48.900;9.188;2023-09-19T02:25:34;15.90;17.40
38239;DHT22;24035;48.900;9.188;2023-09-19T02:28:01;15.80;1.00
38239;DHT22;24035;48.900;9.188;2023-09-19T02:30:29;15.80;99.90
38239;DHT22;24035;48.900;9.188;2023-09-19T02:32:54;15.70;99.90
38239;DHT22;24035;48.900;9.188;2023-09-19T02:35:20;15.60;1.00
38239;DHT22;24035;48.900;9.188;2023-09-19T02:37:47;15.60;1.00
38239;DHT22;24035;48.900;9.188;2023-09-19T02:40:13;15.50;99.90
38239;DHT22;24035;48.900;9.188;2023-09-19T02:42:46;15.60;1.00
38239;DHT22;24035;48.900;9.188;2023-09-19T02:45:12;15.60;99.90
38239;DHT22;24035;48.900;9.188;2023-09-19T02:47:40;15.70;99.90
38239;DHT22;24035;48.900;9.188;2023-09-19T02:50:06;15.70;99.90
38239;DHT22;24035;48.900;9.188;2023-09-19T02:52:32;15.80;80.50
38239;DHT22;24035;48.900;9.188;2023-09-19T02:54:57;15.80;1.00
38239;DHT22;24035;48.900;9.188;2023-09-19T02:57:23;16.10;1.00
38239;DHT22;24035;48.900;9.188;2023-09-19T02:59:49;16.20;1.00
38239;DHT22;24035;48.900;9.188;2023-09-19T03:02:15;16.30;1.00
38239;DHT22;24035;48.900;9.188;2023-09-19T03:04:41;16.30;99.90
38239;DHT22;24035;48.900;9.188;2023-09-19T03:07:07;16.40;99.90
38239;DHT22;24035;48.900;9.188;2023-09-19T03:09:33;16.50;1.00
38239;DHT22;24035;48.900;9.188;2023-09-19T03:11:58;16.50;1.00
38239;DHT22;24035;48.900;9.188;2023-09-19T03:14:25;16.50;1.00
38239;DHT22;24035;48.900;9.188;2023-09-19T03:16:51;16.50;1.00
38239;DHT22;24035;48.900;9.188;2023-09-19T03:19:17;16.60;1.00
38239;DHT22;24035;48.900;9.188;2023-09-19T03:21:44;16.60;99.90
38239;DHT22;24035;48.900;9.188;2023-09-19T03:24:09;16.60;99.90
38239;DHT22;24035;48.900;9.188;2023-09-19T03:26:35;16.60;99.90
38239;DHT22;24035;48.900;9.188;2023-09-19T03:29:04;16.70;99.90
38239;DHT22;24035;48.900;9.188;2023-09-19T03:31:33;16.70;1.00
38239;DHT22;24035;48.900;9.188;2023-09-19T03:34:02;16.60;99.90
38239;DHT22;24035;48.900;9.188;2023-09-19T03:36:29;16.60;1.00
38239;DHT22;24035;48.900;9.188;2023-09-19T03:38:55;16.50;1.00
38239;DHT22;24035;48.900;9.188;2023-09-19T03:41:20;16.40;99.90
38239;DHT22;24035;48.900;9.188;2023-09-19T03:43:47;16.30;1.00
38239;DHT22;24035;48.900;9.188;2023-09-19T03:46:12;16.30;1.00
38239;DHT22;24035;48.900;9.188;2023-09-19T03:48:40;16.30;1.00
38239;DHT22;24035;48.900;9.188;2023-09-19T03:51:06;16.30;99.90
38239;DHT22;24035;48.900;9.188;2023-09-19T03:53:32;16.20;99.90
38239;DHT22;24035;48.900;9.188;2023-09-19T03:55:57;16.20;1.00
38239;DHT22;24035;48.900;9.188;2023-09-19T03:58:23;16.20;1.00
38239;DHT22;24035;48.900;9.188;2023-09-19T04:00:49;16.20;1.00
38239;DHT22;24035;48.900;9.188;2023-09-19T04:03:15;16.20;1.00
38239;DHT22;24035;48.900;9.188;2023-09-19T04:05:47;16.10;1.00
38239;DHT22;24035;48.900;9.188;2023-09-19T04:08:13;16.10;1.00
38239;DHT22;24035;48.900;9.188;2023-09-19T04:10:43;16.10;11.30
38239;DHT22;24035;48.900;9.188;2023-09-19T04:13:12;16.10;99.90
38239;DHT22;24035;48.900;9.188;2023-09-19T04:15:38;16.00;99.90
38239;DHT22;24035;48.900;9.188;2023-09-19T04:18:05;16.00;1.00
38239;DHT22;24035;48.900;9.188;2023-09-19T04:20:32;16.00;1.00
38239;DHT22;24035;48.900;9.188;2023-09-19T04:22:58;16.10;1.00
38239;DHT22;24035;48.900;9.188;2023-09-19T04:25:25;16.10;1.00
38239;DHT22;24035;48.900;9.188;2023-09-19T04:27:52;16.20;1.00
38239;DHT22;24035;48.900;9.188;2023-09-19T04:30:18;16.20;1.00
38239;DHT22;24035;48.900;9.188;2023-09-19T04:32:43;16.30;99.90
38239;DHT22;24035;48.900;9.188;2023-09-19T04:35:10;16.20;1.00
38239;DHT22;24035;48.900;9.188;2023-09-19T04:37:39;16.10;1.00
38239;DHT22;24035;48.900;9.188;2023-09-19T04:40:10;16.20;99.90
38239;DHT22;24035;48.900;9.188;2023-09-19T04:42:40;16.10;1.00
38239;DHT22;24035;48.900;9.188;2023-09-19T04:45:06;16.10;1.00
38239;DHT22;24035;48.900;9.188;2023-09-19T04:47:32;16.10;1.00
38239;DHT22;24035;48.900;9.188;2023-09-19T04:49:58;16.10;65.50
38239;DHT22;24035;48.900;9.188;2023-09-19T04:52:24;16.20;99.90
38239;DHT22;24035;48.900;9.188;2023-09-19T04:54:51;16.20;70.50
38239;DHT22;24035;48.900;9.188;2023-09-19T04:57:16;16.30;1.00
38239;DHT22;24035;48.900;9.188;2023-09-19T04:59:42;16.30;1.00
38239;DHT22;24035;48.900;9.188;2023-09-19T05:02:08;16.20;99.90
38239;DHT22;24035;48.900;9.188;2023-09-19T05:04:34;16.10;78.20
38239;DHT22;24035;48.900;9.188;2023-09-19T05:07:01;16.00;1.00
38239;DHT22;24035;48.900;9.188;2023-09-19T05:09:29;16.00;99.90
38239;DHT22;24035;48.900;9.188;2023-09-19T05:11:55;16.00;1.00
38239;DHT22;24035;48.900;9.188;2023-09-19T05:14:22;16.00;99.90
38239;DHT22;24035;48.900;9.188;2023-09-19T05:16:49;16.00;1.00
38239;DHT22;24035;48.900;9.188;2023-09-19T05:19:15;15.90;1.00
38239;DHT22;24035;48.900;9.188;2023-09-19T05:21:40;15.90;1.00
38239;DHT22;24035;48.900;9.188;2023-09-19T05:24:06;15.80;1.00
38239;DHT22;24035;48.900;9.188;2023-09-19T05:26:34;15.80;99.90
38239;DHT22;24035;48.900;9.188;2023-09-19T05:29:00;15.80;1.00
38239;DHT22;24035;48.900;9.188;2023-09-19T05:31:27;15.80;1.00
38239;DHT22;24035;48.900;9.188;2023-09-19T05:33:53;15.70;1.00
38239;DHT22;24035;48.900;9.188;2023-09-19T05:36:20;15.60;1.00
38239;DHT22;24035;48.900;9.188;2023-09-19T05:38:46;15.50;99.90
38239;DHT22;24035;48.900;9.188;2023-09-19T05:41:15;15.50;99.90
38239;DHT22;24035;48.900;9.188;2023-09-19T05:43:43;15.60;99.90
38239;DHT22;24035;48.900;9.188;2023-09-19T05:46:09;15.50;1.00
38239;DHT22;24035;48.900;9.188;2023-09-19T05:48:35;15.60;1.00
38239;DHT22;24035;48.900;9.188;2023-09-19T05:51:01;15.60;1.00
38239;DHT22;24035;48.900;9.188;2023-09-19T05:53:27;15.60;1.00
38239;DHT22;24035;48.900;9.188;2023-09-19T05:55:54;15.70;1.00
38239;DHT22;24035;48.900;9.188;2023-09-19T05:58:21;15.70;1.00
38239;DHT22;24035;48.900;9.188;2023-09-19T06:00:46;15.70;1.00
38239;DHT22;24035;48.900;9.188;2023-09-19T06:03:14;15.80;1.00
38239;DHT22;24035;48.900;9.188;2023-09-19T06:05:41;15.90;1.00
38239;DHT22;24035;48.900;9.188;2023-09-19T06:08:07;15.90;99.90
38239;DHT22;24035;48.900;9.188;2023-09-19T06:10:34;15.80;1.00
38239;DHT22;24035;48.900;9.188;2023-09-19T06:13:02;15.70;55.70
38239;DHT22;24035;48.900;9.188;2023-09-19T06:15:30;15.60;1.00
38239;DHT22;24035;48.900;9.188;2023-09-19T06:17:58;15.60;99.90
38239;DHT22;24035;48.900;9.188;2023-09-19T06:20:27;15.50;99.90
38239;DHT22;24035;48.900;9.188;2023-09-19T06:22:54;15.50;99.90
38239;DHT22;24035;48.900;9.188;2023-09-19T06:25:20;15.50;99.90
38239;DHT22;24035;48.900;9.188;2023-09-19T06:27:47;15.50;59.10
38239;DHT22;24035;48.900;9.188;2023-09-19T06:30:13;15.60;20.80
38239;DHT22;24035;48.900;9.188;2023-09-19T06:32:43;15.60;1.00
38239;DHT22;24035;48.900;9.188;2023-09-19T06:35:13;15.70;99.90
38239;DHT22;24035;48.900;9.188;2023-09-19T06:37:40;15.80;1.00
38239;DHT22;24035;48.900;9.188;2023-09-19T06:40:13;15.80;1.00
38239;DHT22;24035;48.900;9.188;2023-09-19T06:42:44;15.90;35.40
38239;DHT22;24035;48.900;9.188;2023-09-19T06:45:11;15.90;1.00
38239;DHT22;24035;48.900;9.188;2023-09-19T06:47:39;16.10;1.00
38239;DHT22;24035;48.900;9.188;2023-09-19T06:50:06;16.30;99.90
38239;DHT22;24035;48.900;9.188;2023-09-19T06:52:35;16.40;1.00
38239;DHT22;24035;48.900;9.188;2023-09-19T06:55:01;16.60;99.90
38239;DHT22;24035;48.900;9.188;2023-09-19T06:57:28;16.80;1.00
38239;DHT22;24035;48.900;9.188;2023-09-19T06:59:57;16.90;99.90
38239;DHT22;24035;48.900;9.188;2023-09-19T07:02:23;17.10;99.90
38239;DHT22;24035;48.900;9.188;2023-09-19T07:04:49;17.30;1.00
38239;DHT22;24035;48.900;9.188;2023-09-19T07:07:15;17.40;1.00
38239;DHT22;24035;48.900;9.188;2023-09-19T07:09:42;17.40;99.90
38239;DHT22;24035;48.900;9.188;2023-09-19T07:12:08;17.50;99.90
38239;DHT22;24035;48.900;9.188;2023-09-19T07:14:33;17.50;99.90
38239;DHT22;24035;48.900;9.188;2023-09-19T07:16:59;17.50;99.90
38239;DHT22;24035;48.900;9.188;2023-09-19T07:19:29;17.40;1.00
38239;DHT22;24035;48.900;9.188;2023-09-19T07:21:57;17.30;99.90
38239;DHT22;24035;48.900;9.188;2023-09-19T07:24:25;17.30;1.00
38239;DHT22;24035;48.900;9.188;2023-09-19T07:26:52;17.30;99.90
38239;DHT22;24035;48.900;9.188;2023-09-19T07:29:17;17.40;99.90
38239;DHT22;24035;48.900;9.188;2023-09-19T07:31:43;17.40;99.90
38239;DHT22;24035;48.900;9.188;2023-09-19T07:34:09;17.30;99.90
38239;DHT22;24035;48.900;9.188;2023-09-19T07:36:35;17.20;99.90
38239;DHT22;24035;48.900;9.188;2023-09-19T07:39:03;17.30;99.90
38239;DHT22;24035;48.900;9.188;2023-09-19T07:41:33;17.30;99.90
38239;DHT22;24035;48.900;9.188;2023-09-19T07:43:58;17.40;1.00
38239;DHT22;24035;48.900;9.188;2023-09-19T07:46:24;17.50;1.00
38239;DHT22;24035;48.900;9.188;2023-09-19T07:48:51;17.50;1.00
38239;DHT22;24035;48.900;9.188;2023-09-19T07:51:18;17.60;1.00
38239;DHT22;24035;48.900;9.188;2023-09-19T07:53:45;17.70;1.00
38239;DHT22;24035;48.900;9.188;2023-09-19T07:56:11;17.60;1.00
38239;DHT22;24035;48.900;9.188;2023-09-19T07:58:41;17.60;1.00
38239;DHT22;24035;48.900;9.188;2023-09-19T08:01:10;17.60;1.00
38239;DHT22;24035;48.900;9.188;2023-09-19T08:03:36;17.50;1.00
38239;DHT22;24035;48.900;9.188;2023-09-19T08:06:09;17.40;1.00
38239;DHT22;24035;48.900;9.188;2023-09-19T08:08:36;17.30;1.00
38239;DHT22;24035;48.900;9.188;2023-09-19T08:11:05;17.40;1.00
38239;DHT22;24035;48.900;9.188;2023-09-19T08:13:39;17.50;1.00
38239;DHT22;24035;48.900;9.188;2023-09-19T08:16:15;17.50;99.90
38239;DHT22;24035;48.900;9.188;2023-09-19T08:18:41;17.60;99.90
38239;DHT22;24035;48.900;9.188;2023-09-19T08:21:08;17.60;99.90
38239;DHT22;24035;48.900;9.188;2023-09-19T08:23:37;17.80;99.90
38239;DHT22;24035;48.900;9.188;2023-09-19T08:26:04;18.00;2.20
38239;DHT22;24035;48.900;9.188;2023-09-19T08:28:34;18.00;1.00
38239;DHT22;24035;48.900;9.188;2023-09-19T08:31:04;18.10;1.00
38239;DHT22;24035;48.900;9.188;2023-09-19T08:33:35;18.20;1.00
38239;DHT22;24035;48.900;9.188;2023-09-19T08:36:02;18.40;1.00
38239;DHT22;24035;48.900;9.188;2023-09-19T08:38:31;18.50;1.00
38239;DHT22;24035;48.900;9.188;2023-09-19T08:41:06;18.70;1.00
38239;DHT22;24035;48.900;9.188;2023-09-19T08:43:32;18.70;99.90
38239;DHT22;24035;48.900;9.188;2023-09-19T08:46:10;18.80;99.90
38239;DHT22;24035;48.900;9.188;2023-09-19T08:48:41;18.90;99.90
38239;DHT22;24035;48.900;9.188;2023-09-19T08:51:21;19.10;99.90
38239;DHT22;24035;48.900;9.188;2023-09-19T08:54:20;19.30;99.90
38239;DHT22;24035;48.900;9.188;2023-09-19T08:56:43;19.40;99.90
38239;DHT22;24035;48.900;9.188;2023-09-19T08:59:11;19.50;1.00
38239;DHT22;24035;48.900;9.188;2023-09-19T09:01:38;19.50;1.00
38239;DHT22;24035;48.900;9.188;2023-09-19T09:04:08;19.60;1.00
38239;DHT22;24035;48.900;9.188;2023-09-19T09:06:35;19.70;1.00
38239;DHT22;24035;48.900;9.188;2023-09-19T09:09:02;19.70;1.00
38239;DHT22;24035;48.900;9.188;2023-09-19T09:11:33;19.50;1.00
38239;DHT22;24035;48.900;9.188;2023-09-19T09:13:59;19.70;1.00
38239;DHT22;24035;48.900;9.188;2023-09-19T09:16:25;19.70;1.00
38239;DHT22;24035;48.900;9.188;2023-09-19T09:18:51;20.00;1.00
38239;DHT22;24035;48.900;9.188;2023-09-19T09:21:21;20.30;1.00
38239;DHT22;24035;48.900;9.188;2023-09-19T09:23:48;20.60;1.00
38239;DHT22;24035;48.900;9.188;2023-09-19T09:26:15;20.90;99.90
38239;DHT22;24035;48.900;9.188;2023-09-19T09:28:45;20.90;99.90
38239;DHT22;24035;48.900;9.188;2023-09-19T09:31:24;20.90;99.90
38239;DHT22;24035;48.900;9.188;2023-09-19T09:33:55;21.10;99.90
38239;DHT22;24035;48.900;9.188;2023-09-19T09:36:40;21.30;99.90
38239;DHT22;24035;48.900;9.188;2023-09-19T09:39:07;21.70;99.90
38239;DHT22;24035;48.900;9.188;2023-09-19T09:41:50;21.80;99.90
38239;DHT22;24035;48.900;9.188;2023-09-19T09:44:17;21.90;99.90
38239;DHT22;24035;48.900;9.188;2023-09-19T09:46:44;22.00;99.90
38239;DHT22;24035;48.900;9.188;2023-09-19T09:49:22;22.20;99.90
38239;DHT22;24035;48.900;9.188;2023-09-19T09:52:14;22.10;99.90
38239;DHT22;24035;48.900;9.188;2023-09-19T09:55:03;21.80;99.90
38239;DHT22;24035;48.900;9.188;2023-09-19T09:57:31;21.50;99.90
38239;DHT22;24035;48.900;9.188;2023-09-19T09:59:58;21.30;99.90
38239;DHT22;24035;48.900;9.188;2023-09-19T10:02:37;21.40;99.90
38239;DHT22;24035;48.900;9.188;2023-09-19T10:05:19;21.40;99.90
38239;DHT22;24035;48.900;9.188;2023-09-19T10:07:49;21.40;99.90
38239;DHT22;24035;48.900;9.188;2023-09-19T10:10:33;21.50;99.90
38239;DHT22;24035;48.900;9.188;2023-09-19T10:13:09;21.60;99.90
38239;DHT22;24035;48.900;9.188;2023-09-19T10:15:42;21.40;99.90
38239;DHT22;24035;48.900;9.188;2023-09-19T10:18:14;21.50;99.90
38239;DHT22;24035;48.900;9.188;2023-09-19T10:20:45;21.70;99.90
38239;DHT22;24035;48.900;9.188;2023-09-19T10:23:12;21.80;99.90
38239;DHT22;24035;48.900;9.188;2023-09-19T10:25:42;21.90;99.90
38239;DHT22;24035;48.900;9.188;2023-09-19T10:28:10;22.00;99.90
38239;DHT22;24035;48.900;9.188;2023-09-19T10:30:47;21.80;99.90
38239;DHT22;24035;48.900;9.188;2023-09-19T10:33:14;21.70;99.90
38239;DHT22;24035;48.900;9.188;2023-09-19T10:35:45;21.40;99.90
38239;DHT22;24035;48.900;9.188;2023-09-19T10:38:12;21.50;99.90
38239;DHT22;24035;48.900;9.188;2023-09-19T10:40:40;21.70;99.90
38239;DHT22;24035;48.900;9.188;2023-09-19T10:43:15;21.80;99.90
38239;DHT22;24035;48.900;9.188;2023-09-19T10:45:44;22.30;99.90
38239;DHT22;24035;48.900;9.188;2023-09-19T10:48:11;22.60;99.90
38239;DHT22;24035;48.900;9.188;2023-09-19T10:53:15;22.50;99.90
38239;DHT22;24035;48.900;9.188;2023-09-19T10:55:52;22.40;99.90
38239;DHT22;24035;48.900;9.188;2023-09-19T10:58:27;22.10;99.90
38239;DHT22;24035;48.900;9.188;2023-09-19T11:00:58;21.60;99.90
38239;DHT22;24035;48.900;9.188;2023-09-19T11:03:38;21.40;99.90
38239;DHT22;24035;48.900;9.188;2023-09-19T11:06:17;21.20;99.90
38239;DHT22;24035;48.900;9.188;2023-09-19T11:09:04;21.10;99.90
38239;DHT22;24035;48.900;9.188;2023-09-19T11:25:43;21.30;99.90
38239;DHT22;24035;48.900;9.188;2023-09-19T11:30:42;21.20;99.90
38239;DHT22;24035;48.900;9.188;2023-09-19T11:33:32;21.20;99.90
38239;DHT22;24035;48.900;9.188;2023-09-19T11:36:16;21.30;99.90
38239;DHT22;24035;48.900;9.188;2023-09-19T11:46:27;21.50;99.90
38239;DHT22;24035;48.900;9.188;2023-09-19T11:48:54;21.40;99.90
38239;DHT22;24035;48.900;9.188;2023-09-19T11:51:24;21.40;99.90
38239;DHT22;24035;48.900;9.188;2023-09-19T11:53:54;21.40;99.90
38239;DHT22;24035;48.900;9.188;2023-09-19T11:56:24;21.60;99.90
38239;DHT22;24035;48.900;9.188;2023-09-19T11:58:53;21.70;99.90
38239;DHT22;24035;48.900;9.188;2023-09-19T12:01:29;21.90;99.90
38239;DHT22;24035;48.900;9.188;2023-09-19T12:03:57;22.00;99.90
38239;DHT22;24035;48.900;9.188;2023-09-19T12:06:27;21.90;99.90
38239;DHT22;24035;48.900;9.188;2023-09-19T12:08:55;21.50;99.90
38239;DHT22;24035;48.900;9.188;2023-09-19T12:11:22;21.30;99.90
38239;DHT22;24035;48.900;9.188;2023-09-19T12:13:52;21.20;99.90
38239;DHT22;24035;48.900;9.188;2023-09-19T12:16:20;21.20;99.90
38239;DHT22;24035;48.900;9.188;2023-09-19T12:18:50;21.20;99.90
38239;DHT22;24035;48.900;9.188;2023-09-19T12:24:04;21.40;99.90
38239;DHT22;24035;48.900;9.188;2023-09-19T12:26:37;21.40;99.90
38239;DHT22;24035;48.900;9.188;2023-09-19T12:29:03;21.50;99.90
38239;DHT22;24035;48.900;9.188;2023-09-19T12:31:31;21.60;99.90
38239;DHT22;24035;48.900;9.188;2023-09-19T12:34:02;21.80;99.90
38239;DHT22;24035;48.900;9.188;2023-09-19T12:36:27;21.90;99.90
38239;DHT22;24035;48.900;9.188;2023-09-19T12:38:59;21.90;99.90
38239;DHT22;24035;48.900;9.188;2023-09-19T12:41:27;22.20;99.90
38239;DHT22;24035;48.900;9.188;2023-09-19T12:43:53;22.30;99.90
38239;DHT22;24035;48.900;9.188;2023-09-19T12:46:23;22.40;99.90
38239;DHT22;24035;48.900;9.188;2023-09-19T12:49:16;22.20;99.90
38239;DHT22;24035;48.900;9.188;2023-09-19T12:51:43;22.20;99.90
38239;DHT22;24035;48.900;9.188;2023-09-19T12:54:09;22.10;99.90
38239;DHT22;24035;48.900;9.188;2023-09-19T12:56:41;22.10;99.90
38239;DHT22;24035;48.900;9.188;2023-09-19T12:59:13;21.90;99.90
38239;DHT22;24035;48.900;9.188;2023-09-19T13:01:41;21.80;99.90
38239;DHT22;24035;48.900;9.188;2023-09-19T13:04:18;21.70;99.90
38239;DHT22;24035;48.900;9.188;2023-09-19T13:06:46;22.00;99.90
38239;DHT22;24035;48.900;9.188;2023-09-19T13:09:15;22.10;99.90
38239;DHT22;24035;48.900;9.188;2023-09-19T13:11:42;22.30;99.90
38239;DHT22;24035;48.900;9.188;2023-09-19T13:14:26;22.50;99.90
38239;DHT22;24035;48.900;9.188;2023-09-19T13:17:07;22.60;99.90
38239;DHT22;24035;48.900;9.188;2023-09-19T13:19:45;22.70;99.90
38239;DHT22;24035;48.900;9.188;2023-09-19T13:22:36;22.70;99.90
38239;DHT22;24035;48.900;9.188;2023-09-19T13:25:12;22.70;99.90
38239;DHT22;24035;48.900;9.188;2023-09-19T13:27:45;22.60;99.90
38239;DHT22;24035;48.900;9.188;2023-09-19T13:30:13;22.70;99.90
38239;DHT22;24035;48.900;9.188;2023-09-19T13:32:39;22.70;99.90
38239;DHT22;24035;48.900;9.188;2023-09-19T13:35:07;22.70;99.90
38239;DHT22;24035;48.900;9.188;2023-09-19T13:37:37;22.80;99.90
38239;DHT22;24035;48.900;9.188;2023-09-19T13:40:11;22.70;99.90
38239;DHT22;24035;48.900;9.188;2023-09-19T13:42:37;22.60;99.90
38239;DHT22;24035;48.900;9.188;2023-09-19T13:45:03;22.80;99.90
38239;DHT22;24035;48.900;9.188;2023-09-19T13:47:36;22.50;99.90
38239;DHT22;24035;48.900;9.188;2023-09-19T13:50:04;22.30;99.90
38239;DHT22;24035;48.900;9.188;2023-09-19T13:52:31;22.40;99.90
38239;DHT22;24035;48.900;9.188;2023-09-19T13:54:57;22.30;99.90
38239;DHT22;24035;48.900;9.188;2023-09-19T13:57:26;22.30;99.90
38239;DHT22;24035;48.900;9.188;2023-09-19T13:59:53;22.30;99.90
38239;DHT22;24035;48.900;9.188;2023-09-19T14:02:22;22.40;99.90
38239;DHT22;24035;48.900;9.188;2023-09-19T14:04:49;22.30;99.90
38239;DHT22;24035;48.900;9.188;2023-09-19T14:07:16;22.30;99.90
38239;DHT22;24035;48.900;9.188;2023-09-19T14:09:44;22.40;99.90
38239;DHT22;24035;48.900;9.188;2023-09-19T14:12:10;22.40;99.90
38239;DHT22;24035;48.900;9.188;2023-09-19T14:14:36;22.40;99.90
38239;DHT22;24035;48.900;9.188;2023-09-19T14:17:03;22.40;99.90
38239;DHT22;24035;48.900;9.188;2023-09-19T14:19:30;22.40;99.90
38239;DHT22;24035;48.900;9.188;2023-09-19T14:21:55;22.30;99.90
38239;DHT22;24035;48.900;9.188;2023-09-19T14:24:22;22.30;99.90
38239;DHT22;24035;48.900;9.188;2023-09-19T14:26:48;22.40;99.90
38239;DHT22;24035;48.900;9.188;2023-09-19T14:29:16;22.40;99.90
38239;DHT22;24035;48.900;9.188;2023-09-19T14:31:43;22.40;99.90
38239;DHT22;24035;48.900;9.188;2023-09-19T14:34:09;22.20;99.90
38239;DHT22;24035;48.900;9.188;2023-09-19T14:36:38;22.20;99.90
38239;DHT22;24035;48.900;9.188;2023-09-19T14:39:05;22.30;99.90
38239;DHT22;24035;48.900;9.188;2023-09-19T14:41:31;22.50;99.90
38239;DHT22;24035;48.900;9.188;2023-09-19T14:43:57;22.50;99.90
38239;DHT22;24035;48.900;9.188;2023-09-19T14:46:23;22.60;99.90
38239;DHT22;24035;48.900;9.188;2023-09-19T14:48:51;22.70;99.90
38239;DHT22;24035;48.900;9.188;2023-09-19T14:51:17;22.70;99.90
38239;DHT22;24035;48.900;9.188;2023-09-19T14:53:45;22.80;99.90
38239;DHT22;24035;48.900;9.188;2023-09-19T14:56:11;22.90;99.90
38239;DHT22;24035;48.900;9.188;2023-09-19T14:58:38;23.00;99.90
38239;DHT22;24035;48.900;9.188;2023-09-19T15:01:07;23.00;99.90
38239;DHT22;24035;48.900;9.188;2023-09-19T15:03:33;23.10;99.90
38239;DHT22;24035;48.900;9.188;2023-09-19T15:06:04;23.00;99.90
38239;DHT22;24035;48.900;9.188;2023-09-19T15:08:31;23.00;99.90
38239;DHT22;24035;48.900;9.188;2023-09-19T15:11:01;23.00;99.90
38239;DHT22;24035;48.900;9.188;2023-09-19T15:13:33;22.90;99.90
38239;DHT22;24035;48.900;9.188;2023-09-19T15:16:07;22.90;99.90
38239;DHT22;24035;48.900;9.188;2023-09-19T15:18:37;22.90;99.90
38239;DHT22;24035;48.900;9.188;2023-09-19T15:21:07;22.90;99.90
38239;DHT22;24035;48.900;9.188;2023-09-19T15:23:33;22.90;99.90
38239;DHT22;24035;48.900;9.188;2023-09-19T15:26:07;22.90;99.90
38239;DHT22;24035;48.900;9.188;2023-09-19T15:28:34;22.90;99.90
38239;DHT22;24035;48.900;9.188;2023-09-19T15:31:01;22.90;99.90
38239;DHT22;24035;48.900;9.188;2023-09-19T15:33:27;22.90;99.90
38239;DHT22;24035;48.900;9.188;2023-09-19T15:36:13;22.90;99.90
38239;DHT22;24035;48.900;9.188;2023-09-19T15:39:02;22.90;99.90
38239;DHT22;24035;48.900;9.188;2023-09-19T15:41:31;22.90;99.90
38239;DHT22;24035;48.900;9.188;2023-09-19T15:44:01;22.90;99.90
38239;DHT22;24035;48.900;9.188;2023-09-19T15:46:30;22.80;99.90
38239;DHT22;24035;48.900;9.188;2023-09-19T15:48:57;22.70;99.90
38239;DHT22;24035;48.900;9.188;2023-09-19T15:51:26;22.70;99.90
38239;DHT22;24035;48.900;9.188;2023-09-19T15:53:53;22.60;99.90
38239;DHT22;24035;48.900;9.188;2023-09-19T15:56:21;22.60;99.90
38239;DHT22;24035;48.900;9.188;2023-09-19T15:58:50;22.60;99.90
38239;DHT22;24035;48.900;9.188;2023-09-19T16:01:17;22.50;99.90
38239;DHT22;24035;48.900;9.188;2023-09-19T16:03:45;22.40;99.90
38239;DHT22;24035;48.900;9.188;2023-09-19T16:06:14;22.30;99.90
38239;DHT22;24035;48.900;9.188;2023-09-19T16:08:41;22.30;99.90
38239;DHT22;24035;48.900;9.188;2023-09-19T16:11:08;22.20;99.90
38239;DHT22;24035;48.900;9.188;2023-09-19T16:13:38;22.10;99.90
38239;DHT22;24035;48.900;9.188;2023-09-19T16:16:04;22.00;99.90
38239;DHT22;24035;48.900;9.188;2023-09-19T16:18:30;22.00;99.90
38239;DHT22;24035;48.900;9.188;2023-09-19T16:21:03;22.00;99.90
38239;DHT22;24035;48.900;9.188;2023-09-19T16:23:30;22.00;99.90
38239;DHT22;24035;48.900;9.188;2023-09-19T16:26:09;22.00;99.90
38239;DHT22;24035;48.900;9.188;2023-09-19T16:28:36;22.00;99.90
38239;DHT22;24035;48.900;9.188;2023-09-19T16:31:03;22.00;99.90
38239;DHT22;24035;48.900;9.188;2023-09-19T16:33:31;21.90;99.90